»·PEaware :: SWA5511 KLAX-KSFO

SWA5511 :: KLAX-KSFO

FLIGHT INFORMATION

Flight Status: Arrived
Operator:
Southwest Airlines
More flights by this operator :: More flights under this callsign
Pilot: Christian H. (16685)
Aircraft: BOEING 737-900
(B739)
More flights by this aircraft type
Origin: KLAX Los Angeles Intl
United States
Destination: KSFO San Francisco Intl
United States
More flights between these airports :: More routes between these airports
Route: +SUMMR1 STOKD SERFR SERFR3
File this flight plan on PilotEdge
Remarks:
Altitude:
(Current/Filed)
32,000ft
Speed:
(Current/Filed)
503kts
Departed: 16-May-18 10:26 AM
Arrived: 16-May-18 11:30 AM
Distance/Time
Traveled:
293nm/1:04
Distance/Time
To Go:
Arrived

Flight Plot

Page will automatically refresh every two minutes.

Flight plan parsing failed; only flown route is shown


Map Options




Map Legend


Flown Route
Filed Route
Departure Airport
Arrival Airport
Navaid (VOR, NDB)
Fix

Horizontal Profiles

Position Reports

Time Latitude Longitude Heading Altitude Ground
Speed
16-May-18 09:47 33.946967 -118.407764 173 121ft 0kts
16-May-18 09:48 33.946967 -118.407764 173 121ft 0kts
16-May-18 09:49 33.946967 -118.407764 173 121ft 0kts
16-May-18 09:50 33.946967 -118.407764 173 121ft 0kts
16-May-18 09:51 33.946967 -118.407764 173 121ft 0kts
16-May-18 09:52 33.946967 -118.407764 173 121ft 0kts
16-May-18 09:53 33.946967 -118.407764 173 121ft 0kts
16-May-18 09:54 33.946967 -118.407764 173 121ft 0kts
16-May-18 09:55 33.946967 -118.407764 173 121ft 0kts
16-May-18 09:56 33.946967 -118.407764 173 121ft 0kts
16-May-18 09:57 33.946967 -118.407764 173 121ft 0kts
16-May-18 09:58 33.946967 -118.407764 173 121ft 0kts
16-May-18 09:59 33.946967 -118.407764 173 121ft 0kts
16-May-18 10:00 33.946967 -118.407764 173 121ft 0kts
16-May-18 10:01 33.946967 -118.407764 173 121ft 0kts
16-May-18 10:02 33.946967 -118.407764 173 121ft 0kts
16-May-18 10:03 33.946967 -118.407764 173 121ft 0kts
16-May-18 10:04 33.946967 -118.407764 173 121ft 0kts
16-May-18 10:05 33.946967 -118.407764 173 121ft 0kts
16-May-18 10:06 33.946967 -118.407764 173 121ft 0kts
16-May-18 10:07 33.946967 -118.407764 173 121ft 0kts
16-May-18 10:08 33.946967 -118.407764 173 121ft 0kts
16-May-18 10:09 33.946967 -118.407764 173 121ft 0kts
16-May-18 10:10 33.946967 -118.407764 173 121ft 0kts
16-May-18 10:11 33.946967 -118.407764 173 121ft 0kts
16-May-18 10:12 33.946967 -118.407764 173 121ft 0kts
16-May-18 10:13 33.946968 -118.407764 173 121ft 0kts
16-May-18 10:14 33.947292 -118.407854 150 121ft 2kts
16-May-18 10:15 33.947561 -118.408291 101 122ft 2kts
16-May-18 10:16 33.947562 -118.408560 82 122ft 0kts
16-May-18 10:17 33.947562 -118.408559 82 122ft 0kts
16-May-18 10:18 33.947562 -118.408559 82 122ft 0kts
16-May-18 10:19 33.947562 -118.408559 82 122ft 0kts
16-May-18 10:20 33.947562 -118.408559 82 122ft 0kts
16-May-18 10:21 33.947607 -118.408173 82 122ft 9kts
16-May-18 10:22 33.948702 -118.405352 77 119ft 14kts
16-May-18 10:23 33.949058 -118.402162 66 116ft 18kts
16-May-18 10:24 33.949238 -118.401904 39 116ft 0kts
16-May-18 10:25 33.949468 -118.401750 12 116ft 8kts
16-May-18 10:26 33.949722 -118.406350 261 119ft 78kts
16-May-18 10:27 33.944794 -118.450111 268 819ft 217kts
16-May-18 10:28 33.940630 -118.517432 262 3434ft 250kts
16-May-18 10:29 33.935167 -118.599837 275 4927ft 281kts
16-May-18 10:30 33.932231 -118.667574 264 5045ft 275kts
16-May-18 10:31 33.926236 -118.747386 269 4795ft 260kts
16-May-18 10:32 33.918796 -118.831408 265 5114ft 269kts
16-May-18 10:33 33.917683 -118.912082 273 4950ft 240kts
16-May-18 10:34 33.920343 -118.988436 271 5365ft 240kts
16-May-18 10:35 33.941546 -119.062141 302 7555ft 275kts
16-May-18 10:36 33.985133 -119.142499 299 9527ft 329kts
16-May-18 10:37 34.046706 -119.225779 326 11488ft 389kts
16-May-18 10:38 34.127032 -119.289916 321 14276ft 374kts
16-May-18 10:39 34.201235 -119.352727 319 16768ft 358kts
16-May-18 10:40 34.274280 -119.415407 318 19150ft 370kts
16-May-18 10:41 34.350685 -119.481260 317 21565ft 379kts
16-May-18 10:42 34.428746 -119.553530 307 24066ft 365kts
16-May-18 10:43 34.494235 -119.633460 306 26527ft 348kts
16-May-18 10:44 34.553237 -119.705918 305 28905ft 321kts
16-May-18 10:45 34.606715 -119.771499 303 31272ft 274kts
16-May-18 10:46 34.651588 -119.827029 302 32183ft 268kts
16-May-18 10:47 34.699556 -119.887308 303 32149ft 305kts
16-May-18 10:48 34.750183 -119.950747 305 32145ft 341kts
16-May-18 10:49 34.808714 -120.024038 305 32124ft 380kts
16-May-18 10:50 34.874868 -120.106865 306 32140ft 416kts
16-May-18 10:51 34.944769 -120.194420 307 32133ft 440kts
16-May-18 10:52 35.014379 -120.281572 307 32131ft 441kts
16-May-18 10:53 35.087647 -120.373506 307 32130ft 442kts
16-May-18 10:54 35.150003 -120.444489 311 32121ft 446kts
16-May-18 10:55 35.223836 -120.526877 311 32122ft 446kts
16-May-18 10:56 35.298926 -120.611064 312 32123ft 449kts
16-May-18 10:57 35.368923 -120.689947 313 32130ft 452kts
16-May-18 10:58 35.443124 -120.773628 313 32130ft 452kts
16-May-18 10:59 35.517211 -120.852603 319 32135ft 455kts
16-May-18 11:00 35.599602 -120.928175 319 32130ft 456kts
16-May-18 11:01 35.684777 -121.006820 319 32129ft 456kts
16-May-18 11:02 35.769922 -121.085902 319 32129ft 455kts
16-May-18 11:03 35.850431 -121.160983 319 32130ft 455kts
16-May-18 11:04 35.939636 -121.244503 319 31396ft 458kts
16-May-18 11:05 36.032556 -121.331808 319 29645ft 463kts
16-May-18 11:06 36.127993 -121.413838 324 27867ft 473kts
16-May-18 11:07 36.220127 -121.484983 325 26214ft 479kts
16-May-18 11:08 36.323269 -121.565293 325 24382ft 483kts
16-May-18 11:09 36.414510 -121.636623 325 22673ft 444kts
16-May-18 11:10 36.495710 -121.700332 324 21049ft 422kts
16-May-18 11:11 36.582244 -121.768561 324 20137ft 413kts
16-May-18 11:12 36.664349 -121.833460 323 20138ft 391kts
16-May-18 11:13 36.743154 -121.894701 331 17368ft 378kts
16-May-18 11:14 36.828047 -121.921009 345 15036ft 370kts
16-May-18 11:15 36.912279 -121.943637 344 12899ft 360kts
16-May-18 11:16 36.986534 -121.967389 340 11513ft 351kts
16-May-18 11:17 37.063328 -121.997152 339 10612ft 347kts
16-May-18 11:18 37.132852 -122.024252 339 10065ft 345kts
16-May-18 11:19 37.204586 -122.052178 338 9042ft 311kts
16-May-18 11:20 37.264910 -122.075620 337 8121ft 279kts
16-May-18 11:21 37.322550 -122.098276 338 7106ft 271kts
16-May-18 11:22 37.374666 -122.118744 338 6018ft 251kts
16-May-18 11:23 37.426150 -122.136907 341 5081ft 257kts
16-May-18 11:24 37.478587 -122.154930 342 4157ft 259kts
16-May-18 11:25 37.529128 -122.173767 328 3366ft 224kts
16-May-18 11:26 37.557372 -122.228766 298 1769ft 214kts
16-May-18 11:27 37.577772 -122.277740 300 1675ft 150kts
16-May-18 11:28 37.595332 -122.319649 297 885ft 159kts
16-May-18 11:29 37.612194 -122.359435 296 62ft 150kts
16-May-18 11:30 37.618965 -122.377695 270 26ft 1kts
16-May-18 11:31 37.619419 -122.381652 269 30ft 25kts

Navigation Log

Ident Type
Flight plan parsing failed, navigation log unavailable